createdAt,value
2018-11-13T00:00:31.147Z,8.20
2018-11-13T00:02:57.498Z,8.20
2018-11-13T00:05:23.515Z,8.20
2018-11-13T00:07:49.500Z,8.20
2018-11-13T00:10:15.476Z,8.20
2018-11-13T00:12:42.147Z,8.20
2018-11-13T00:15:08.150Z,8.20
2018-11-13T00:17:34.859Z,8.20
2018-11-13T00:20:01.592Z,8.20
2018-11-13T00:22:27.563Z,8.20
2018-11-13T00:24:53.564Z,8.20
2018-11-13T00:27:19.580Z,8.20
2018-11-13T00:29:46.250Z,8.20
2018-11-13T00:32:12.226Z,8.10
2018-11-13T00:34:38.193Z,8.10
2018-11-13T00:37:04.160Z,8.20
2018-11-13T00:39:30.103Z,8.10
2018-11-13T00:41:56.843Z,8.20
2018-11-13T00:44:22.805Z,8.10
2018-11-13T00:46:48.805Z,8.20
2018-11-13T00:49:15.489Z,8.30
2018-11-13T00:51:41.474Z,8.30
2018-11-13T00:54:07.451Z,8.30
2018-11-13T00:56:33.407Z,8.30
2018-11-13T00:59:00.136Z,8.40
2018-11-13T01:01:26.085Z,8.40
2018-11-13T01:03:52.054Z,8.40
2018-11-13T01:06:18.005Z,8.50
2018-11-13T01:08:44.740Z,8.40
2018-11-13T01:11:10.691Z,8.40
2018-11-13T01:13:36.669Z,8.40
2018-11-13T01:16:02.662Z,8.30
2018-11-13T01:18:28.615Z,8.30
2018-11-13T01:20:54.600Z,8.40
2018-11-13T01:23:20.569Z,8.40
2018-11-13T01:25:46.558Z,8.40
2018-11-13T01:28:12.534Z,8.40
2018-11-13T01:30:39.295Z,8.40
2018-11-13T01:33:05.264Z,8.30
2018-11-13T01:35:31.239Z,8.30
2018-11-13T01:37:57.224Z,8.30
2018-11-13T01:40:23.186Z,8.30
2018-11-13T01:42:49.166Z,8.30
2018-11-13T01:45:15.107Z,8.30
2018-11-13T01:47:41.073Z,8.30
2018-11-13T01:50:07.021Z,8.30
2018-11-13T01:52:33.157Z,8.30
2018-11-13T01:54:58.957Z,8.20
2018-11-13T01:57:24.986Z,8.20
2018-11-13T01:59:50.940Z,8.20
2018-11-13T02:02:17.652Z,8.30
2018-11-13T02:04:43.647Z,8.30
2018-11-13T02:07:09.616Z,8.20
2018-11-13T02:09:36.360Z,8.20
2018-11-13T02:12:02.309Z,8.20
2018-11-13T02:14:29.023Z,8.10
2018-11-13T02:16:54.985Z,8.10
2018-11-13T02:19:20.968Z,8.20
2018-11-13T02:21:47.670Z,8.10
2018-11-13T02:24:13.619Z,8.10
2018-11-13T02:26:39.598Z,8.20
2018-11-13T02:29:05.543Z,8.20
2018-11-13T02:31:31.509Z,8.20
2018-11-13T02:33:58.203Z,8.30
2018-11-13T02:36:24.174Z,8.30
2018-11-13T02:38:50.870Z,8.30
2018-11-13T02:41:16.864Z,8.30
2018-11-13T02:43:42.798Z,8.40
2018-11-13T02:46:08.790Z,8.30
2018-11-13T02:48:35.492Z,8.30
2018-11-13T02:51:01.486Z,8.30
2018-11-13T02:53:27.445Z,8.30
2018-11-13T02:55:53.422Z,8.30
2018-11-13T02:58:19.433Z,8.30
2018-11-13T03:00:45.405Z,8.30
2018-11-13T03:03:11.402Z,8.20
2018-11-13T03:05:37.374Z,8.20
2018-11-13T03:08:03.359Z,8.10
2018-11-13T03:10:29.322Z,8.10
2018-11-13T03:12:55.277Z,8.10
2018-11-13T03:15:21.213Z,8.00
2018-11-13T03:17:47.172Z,8.00
2018-11-13T03:20:13.194Z,8.00
2018-11-13T03:22:39.132Z,8.00
2018-11-13T03:25:05.103Z,8.00
2018-11-13T03:27:31.048Z,8.10
2018-11-13T03:29:57.020Z,8.10
2018-11-13T03:32:22.976Z,8.10
2018-11-13T03:34:48.941Z,8.10
2018-11-13T03:37:15.690Z,8.10
2018-11-13T03:39:42.396Z,8.10
2018-11-13T03:42:08.398Z,8.10
2018-11-13T03:44:34.376Z,8.10
2018-11-13T03:47:01.098Z,8.20
2018-11-13T03:49:27.063Z,8.10
2018-11-13T03:51:53.051Z,8.10
2018-11-13T03:54:19.004Z,8.10
2018-11-13T03:56:44.987Z,8.10
2018-11-13T03:59:10.979Z,8.10
2018-11-13T04:01:37.009Z,8.00
2018-11-13T04:04:02.946Z,8.00
2018-11-13T04:06:28.888Z,7.90
2018-11-13T04:08:55.627Z,7.90
2018-11-13T04:11:21.577Z,7.90
2018-11-13T04:13:47.581Z,7.90
2018-11-13T04:16:14.298Z,7.90
2018-11-13T04:18:40.264Z,7.90
2018-11-13T04:21:06.221Z,7.90
2018-11-13T04:23:32.948Z,8.00
2018-11-13T04:25:58.898Z,7.90
2018-11-13T04:28:24.888Z,8.00
2018-11-13T04:30:50.998Z,8.00
2018-11-13T04:33:17.578Z,8.00
2018-11-13T04:35:43.577Z,8.00
2018-11-13T04:38:09.526Z,8.00
2018-11-13T04:40:35.501Z,8.00
2018-11-13T04:43:01.472Z,8.00
2018-11-13T04:45:27.469Z,8.10
2018-11-13T04:47:53.429Z,8.00
2018-11-13T04:50:19.415Z,8.10
2018-11-13T04:52:45.389Z,8.20
2018-11-13T04:55:11.383Z,8.00
2018-11-13T04:57:37.360Z,8.00
2018-11-13T05:00:03.435Z,7.90
2018-11-13T05:02:29.546Z,8.00
2018-11-13T05:04:55.526Z,7.90
2018-11-13T05:07:21.549Z,7.90
2018-11-13T05:09:47.629Z,7.90
2018-11-13T05:12:13.635Z,7.80
2018-11-13T05:14:39.585Z,7.80
2018-11-13T05:17:05.601Z,7.70
2018-11-13T05:19:32.342Z,7.70
2018-11-13T05:21:58.324Z,7.70
2018-11-13T05:24:24.278Z,7.60
2018-11-13T05:26:50.286Z,7.60
2018-11-13T05:29:16.240Z,7.70
2018-11-13T05:31:42.214Z,7.60
2018-11-13T05:34:08.173Z,7.70
2018-11-13T05:36:34.141Z,7.60
2018-11-13T05:39:00.870Z,7.70
2018-11-13T05:41:27.584Z,7.90
2018-11-13T05:43:53.578Z,7.90
2018-11-13T05:46:19.538Z,7.90
2018-11-13T05:48:45.531Z,7.90
2018-11-13T05:51:11.537Z,8.00
2018-11-13T05:53:37.523Z,8.00
2018-11-13T05:56:03.525Z,8.10
2018-11-13T05:58:29.515Z,8.10
2018-11-13T06:00:55.534Z,8.10
2018-11-13T06:03:21.485Z,8.00
2018-11-13T06:05:47.460Z,8.00
2018-11-13T06:08:13.430Z,8.10
2018-11-13T06:10:39.448Z,8.10
2018-11-13T06:13:05.437Z,8.20
2018-11-13T06:15:31.430Z,8.20
2018-11-13T06:17:57.372Z,8.30
2018-11-13T06:20:23.352Z,8.20
2018-11-13T06:22:49.410Z,8.30
2018-11-13T06:25:15.331Z,8.30
2018-11-13T06:27:42.049Z,8.20
2018-11-13T06:30:08.004Z,8.20
2018-11-13T06:32:34.716Z,8.00
2018-11-13T06:35:00.677Z,8.00
2018-11-13T06:37:26.668Z,7.90
2018-11-13T06:39:53.382Z,8.00
2018-11-13T06:42:19.400Z,7.80
2018-11-13T06:44:45.374Z,8.00
2018-11-13T06:47:11.346Z,7.90
2018-11-13T06:49:37.434Z,7.90
2018-11-13T06:52:03.322Z,7.80
2018-11-13T06:54:30.057Z,7.80
2018-11-13T06:56:56.770Z,7.70
2018-11-13T06:59:23.504Z,7.80
2018-11-13T07:01:49.470Z,7.80
2018-11-13T07:04:16.225Z,7.80
2018-11-13T07:06:42.217Z,7.80
2018-11-13T07:09:08.166Z,8.00
2018-11-13T07:11:34.164Z,8.10
2018-11-13T07:14:00.115Z,8.20
2018-11-13T07:16:26.106Z,8.30
2018-11-13T07:18:52.063Z,8.30
2018-11-13T07:21:18.063Z,8.40
2018-11-13T07:23:44.766Z,8.50
2018-11-13T07:26:10.777Z,8.50
2018-11-13T07:28:36.751Z,8.60
2018-11-13T07:31:03.478Z,8.70
2018-11-13T07:33:29.435Z,8.70
2018-11-13T07:35:55.443Z,8.70
2018-11-13T07:38:22.158Z,8.80
2018-11-13T07:40:48.158Z,8.80
2018-11-13T07:43:14.130Z,8.80
2018-11-13T07:45:40.864Z,9.00
2018-11-13T07:48:07.588Z,9.00
2018-11-13T07:50:33.548Z,9.00
2018-11-13T07:52:59.529Z,9.10
2018-11-13T07:55:25.505Z,9.20
2018-11-13T07:57:51.496Z,9.20
2018-11-13T08:00:18.197Z,9.30
2018-11-13T08:02:44.180Z,9.30
2018-11-13T08:05:10.147Z,9.40
2018-11-13T08:07:36.150Z,9.40
2018-11-13T08:10:02.123Z,9.40
2018-11-13T08:12:28.863Z,9.50
2018-11-13T08:14:55.564Z,9.50
2018-11-13T08:17:21.558Z,9.50
2018-11-13T08:19:47.511Z,9.50
2018-11-13T08:22:13.568Z,9.50
2018-11-13T08:24:39.472Z,9.50
2018-11-13T08:27:06.173Z,9.60
2018-11-13T08:29:32.226Z,9.50
2018-11-13T08:31:58.177Z,9.60
2018-11-13T08:34:24.155Z,9.60
2018-11-13T08:36:50.115Z,9.80
2018-11-13T08:39:16.073Z,9.80
2018-11-13T08:41:42.022Z,9.90
2018-11-13T08:44:08.045Z,9.90
2018-11-13T08:46:34.027Z,10.00
2018-11-13T08:49:00.752Z,10.00
2018-11-13T08:51:26.702Z,10.00
2018-11-13T08:53:52.651Z,10.00
2018-11-13T08:56:18.658Z,10.00
2018-11-13T08:58:44.688Z,10.20
2018-11-13T09:01:10.673Z,10.10
2018-11-13T09:03:37.370Z,10.20
2018-11-13T09:06:03.390Z,10.20
2018-11-13T09:08:30.122Z,10.20
2018-11-13T09:10:56.152Z,10.20
2018-11-13T09:13:22.144Z,10.20
2018-11-13T09:15:48.145Z,10.20
2018-11-13T09:18:14.857Z,10.40
2018-11-13T09:20:40.827Z,10.30
2018-11-13T09:23:07.506Z,10.50
2018-11-13T09:25:33.466Z,10.40
2018-11-13T09:28:00.203Z,10.70
2018-11-13T09:30:26.434Z,10.70
2018-11-13T09:32:52.220Z,10.80
2018-11-13T09:35:18.229Z,11.00
2018-11-13T09:37:44.917Z,11.00
2018-11-13T09:40:10.875Z,11.00
2018-11-13T09:42:36.860Z,11.10
2018-11-13T09:45:03.575Z,11.00
2018-11-13T09:47:29.594Z,10.90
2018-11-13T09:49:55.553Z,10.90
2018-11-13T09:52:21.538Z,10.90
2018-11-13T09:54:47.524Z,10.80
2018-11-13T09:57:13.485Z,10.90
2018-11-13T09:59:39.482Z,11.00
2018-11-13T10:02:05.744Z,11.10
2018-11-13T10:04:32.044Z,11.20
2018-11-13T10:06:57.491Z,11.30
2018-11-13T10:09:23.502Z,11.40
2018-11-13T10:11:49.457Z,11.40
2018-11-13T10:14:16.183Z,11.50
2018-11-13T10:16:42.142Z,11.50
2018-11-13T10:19:08.118Z,11.50
2018-11-13T10:21:34.099Z,11.40
2018-11-13T10:24:00.052Z,11.40
2018-11-13T10:26:26.094Z,11.40
2018-11-13T10:28:52.113Z,11.50
2018-11-13T10:31:18.857Z,11.60
2018-11-13T10:33:44.883Z,11.60
2018-11-13T10:36:10.919Z,11.60
2018-11-13T10:38:36.885Z,11.60
2018-11-13T10:41:04.513Z,11.60
2018-11-13T10:43:30.515Z,11.60
2018-11-13T10:45:56.472Z,11.70
2018-11-13T10:48:23.198Z,11.50
2018-11-13T10:50:49.901Z,11.40
2018-11-13T10:53:15.896Z,11.40
2018-11-13T10:55:41.866Z,11.40
2018-11-13T10:58:07.849Z,11.30
2018-11-13T11:00:33.827Z,11.30
2018-11-13T11:03:00.571Z,11.20
2018-11-13T11:05:26.509Z,11.10
2018-11-13T11:07:52.512Z,11.10
2018-11-13T11:10:19.254Z,11.00
2018-11-13T11:12:46.026Z,11.00
2018-11-13T11:15:11.984Z,10.90
2018-11-13T11:17:37.959Z,11.00
2018-11-13T11:20:03.966Z,11.20
2018-11-13T11:22:30.679Z,11.70
2018-11-13T11:24:56.680Z,11.70
2018-11-13T11:27:22.650Z,11.70
2018-11-13T11:29:56.247Z,11.60
2018-11-13T11:32:22.967Z,11.70
2018-11-13T11:34:48.969Z,11.70
2018-11-13T11:37:14.937Z,11.70
2018-11-13T11:39:41.662Z,11.90
2018-11-13T11:42:07.629Z,11.90
2018-11-13T11:44:33.677Z,12.00
2018-11-13T11:46:59.604Z,11.90
2018-11-13T11:49:25.565Z,11.90
2018-11-13T11:51:52.329Z,12.00
2018-11-13T11:54:18.297Z,12.00
2018-11-13T11:56:44.281Z,12.10
2018-11-13T11:59:10.252Z,12.20
2018-11-13T12:01:36.242Z,12.30
2018-11-13T12:04:02.209Z,12.30
2018-11-13T12:06:28.189Z,12.40
2018-11-13T12:08:54.148Z,12.50
2018-11-13T12:11:20.142Z,12.60
2018-11-13T12:13:46.840Z,12.80
2018-11-13T12:16:13.567Z,12.90
2018-11-13T12:18:40.288Z,12.90
2018-11-13T12:21:06.286Z,12.90
2018-11-13T12:23:32.249Z,12.90
2018-11-13T12:25:59.028Z,13.00
2018-11-13T12:28:25.725Z,13.00
2018-11-13T12:30:51.678Z,12.90
2018-11-13T12:33:17.673Z,12.90
2018-11-13T12:35:44.388Z,12.70
2018-11-13T12:38:10.393Z,12.70
2018-11-13T12:40:36.377Z,12.70
2018-11-13T12:43:03.074Z,12.50
2018-11-13T12:45:29.071Z,12.50
2018-11-13T12:47:55.049Z,12.50
2018-11-13T12:50:21.783Z,12.40
2018-11-13T12:52:48.497Z,12.50
2018-11-13T12:55:14.492Z,12.50
2018-11-13T12:57:40.464Z,12.50
2018-11-13T13:00:06.638Z,12.60
2018-11-13T13:02:32.601Z,12.60
2018-11-13T13:04:58.707Z,12.60
2018-11-13T13:07:24.668Z,12.70
2018-11-13T13:09:51.379Z,12.90
2018-11-13T13:12:17.365Z,12.90
2018-11-13T13:14:43.405Z,12.80
2018-11-13T13:17:09.377Z,12.70
2018-11-13T13:19:35.344Z,12.60
2018-11-13T13:22:01.379Z,12.50
2018-11-13T13:24:27.334Z,12.50
2018-11-13T13:26:53.334Z,12.40
2018-11-13T13:29:19.311Z,12.30
2018-11-13T13:31:45.346Z,12.10
2018-11-13T13:34:11.341Z,12.00
2018-11-13T13:36:37.311Z,12.00
2018-11-13T13:39:03.299Z,12.10
2018-11-13T13:41:29.294Z,12.20
2018-11-13T13:43:56.038Z,12.30
2018-11-13T13:46:22.071Z,12.30
2018-11-13T13:48:48.048Z,12.30
2018-11-13T13:51:14.016Z,12.30
2018-11-13T13:53:40.788Z,12.40
2018-11-13T13:56:07.484Z,12.50
2018-11-13T13:58:33.473Z,12.50
2018-11-13T14:00:59.535Z,12.60
2018-11-13T14:03:25.430Z,12.50
2018-11-13T14:05:51.475Z,12.50
2018-11-13T14:08:17.462Z,12.40
2018-11-13T14:10:43.447Z,12.40
2018-11-13T14:13:10.149Z,12.30
2018-11-13T14:15:36.238Z,12.20
2018-11-13T14:18:02.187Z,12.20
2018-11-13T14:20:28.176Z,12.10
2018-11-13T14:22:54.185Z,12.10
2018-11-13T14:25:20.922Z,11.90
2018-11-13T14:27:47.678Z,11.80
2018-11-13T14:30:13.659Z,11.80
2018-11-13T14:32:39.670Z,11.70
2018-11-13T14:35:05.654Z,11.60
2018-11-13T14:37:31.657Z,11.40
2018-11-13T14:39:58.387Z,11.50
2018-11-13T14:42:24.653Z,11.50
2018-11-13T14:44:50.643Z,11.60
2018-11-13T14:47:17.359Z,11.60
2018-11-13T14:49:43.359Z,11.60
2018-11-13T14:52:09.336Z,11.60
2018-11-13T14:54:36.069Z,11.60
2018-11-13T14:57:02.787Z,11.60
2018-11-13T14:59:28.779Z,11.60
2018-11-13T15:01:54.750Z,11.60
2018-11-13T15:04:21.516Z,11.60
2018-11-13T15:06:47.509Z,11.60
2018-11-13T15:09:14.235Z,11.50
2018-11-13T15:11:40.244Z,11.50
2018-11-13T15:14:06.225Z,11.50
2018-11-13T15:16:32.209Z,11.40
2018-11-13T15:18:58.172Z,11.40
2018-11-13T15:21:24.891Z,11.30
2018-11-13T15:23:51.603Z,11.30
2018-11-13T15:26:17.594Z,11.20
2018-11-13T15:28:43.548Z,11.30
2018-11-13T15:31:09.630Z,11.30
2018-11-13T15:33:35.614Z,11.30
2018-11-13T15:36:01.570Z,11.30
2018-11-13T15:38:27.587Z,11.30
2018-11-13T15:40:53.558Z,11.20
2018-11-13T15:43:19.550Z,11.10
2018-11-13T15:45:45.519Z,11.00
2018-11-13T15:48:11.619Z,10.90
2018-11-13T15:50:37.607Z,10.90
2018-11-13T15:53:03.631Z,10.90
2018-11-13T15:55:29.635Z,10.80
2018-11-13T15:57:56.355Z,10.80
2018-11-13T16:00:22.341Z,10.80
2018-11-13T16:02:48.305Z,10.80
2018-11-13T16:05:14.319Z,10.80
2018-11-13T16:07:40.277Z,10.80
2018-11-13T16:10:07.097Z,10.80
2018-11-13T16:12:33.078Z,10.80
2018-11-13T16:14:59.779Z,10.60
2018-11-13T16:17:25.752Z,10.60
2018-11-13T16:19:51.746Z,10.60
2018-11-13T16:22:17.706Z,10.40
2018-11-13T16:24:43.696Z,10.40
2018-11-13T16:27:09.669Z,10.40
2018-11-13T16:29:35.648Z,10.40
2018-11-13T16:32:01.637Z,10.30
2018-11-13T16:34:27.636Z,10.30
2018-11-13T16:36:53.674Z,10.20
2018-11-13T16:39:19.626Z,10.20
2018-11-13T16:41:45.599Z,10.20
2018-11-13T16:44:11.596Z,10.10
2018-11-13T16:46:38.328Z,10.00
2018-11-13T16:49:04.337Z,10.10
2018-11-13T16:51:30.307Z,10.10
2018-11-13T16:53:58.170Z,10.10
2018-11-13T16:56:23.041Z,9.90
2018-11-13T16:58:49.142Z,9.90
2018-11-13T17:01:15.155Z,9.90
2018-11-13T17:03:41.948Z,9.90
2018-11-13T17:06:07.978Z,9.90
2018-11-13T17:08:34.631Z,9.80
2018-11-13T17:11:01.470Z,9.70
2018-11-13T17:13:27.398Z,9.70
2018-11-13T17:15:54.122Z,9.70
2018-11-13T17:18:20.080Z,9.70
2018-11-13T17:20:46.809Z,9.60
2018-11-13T17:23:13.506Z,9.60
2018-11-13T17:25:39.501Z,9.60
2018-11-13T17:28:05.514Z,9.60
2018-11-13T17:30:32.220Z,9.60
2018-11-13T17:32:58.206Z,9.60
2018-11-13T17:35:24.205Z,9.60
2018-11-13T17:37:50.225Z,9.50
2018-11-13T17:40:16.196Z,9.50
2018-11-13T17:42:42.206Z,9.50
2018-11-13T17:45:08.148Z,9.50
2018-11-13T17:47:34.166Z,9.50
2018-11-13T17:50:00.123Z,9.40
2018-11-13T17:52:26.888Z,9.50
2018-11-13T17:54:52.834Z,9.50
2018-11-13T17:57:18.833Z,9.50
2018-11-13T17:59:44.926Z,9.40
2018-11-13T18:02:10.876Z,9.30
2018-11-13T18:04:36.837Z,9.30
2018-11-13T18:07:02.830Z,9.40
2018-11-13T18:09:28.839Z,9.40
2018-11-13T18:11:55.539Z,9.40
2018-11-13T18:14:21.549Z,9.40
2018-11-13T18:16:47.513Z,9.40
2018-11-13T18:19:14.252Z,9.20
2018-11-13T18:21:40.300Z,9.20
2018-11-13T18:24:06.248Z,9.20
2018-11-13T18:26:32.232Z,9.10
2018-11-13T18:28:58.956Z,9.10
2018-11-13T18:31:24.964Z,9.10
2018-11-13T18:33:50.957Z,9.10
2018-11-13T18:36:16.952Z,9.00
2018-11-13T18:38:43.071Z,9.00
2018-11-13T18:41:08.949Z,9.10
2018-11-13T18:43:34.937Z,9.10
2018-11-13T18:46:00.892Z,9.20
2018-11-13T18:48:26.896Z,9.20
2018-11-13T18:50:52.865Z,9.30
2018-11-13T18:53:18.881Z,9.30
2018-11-13T18:55:44.857Z,9.20
2018-11-13T18:58:10.842Z,9.30
2018-11-13T19:00:37.676Z,9.20
2018-11-13T19:03:03.637Z,9.20
2018-11-13T19:05:29.601Z,9.20
2018-11-13T19:07:55.602Z,9.20
2018-11-13T19:10:21.578Z,9.10
2018-11-13T19:12:48.503Z,9.10
2018-11-13T19:15:14.315Z,9.10
2018-11-13T19:17:40.317Z,9.10
2018-11-13T19:20:06.463Z,9.10
2018-11-13T19:22:32.330Z,9.00
2018-11-13T19:24:58.292Z,9.00
2018-11-13T19:27:24.291Z,8.90
2018-11-13T19:29:50.320Z,8.90
2018-11-13T19:32:16.296Z,8.80
2018-11-13T19:34:43.005Z,8.70
2018-11-13T19:37:09.006Z,8.60
2018-11-13T19:39:34.989Z,8.70
2018-11-13T19:42:01.027Z,8.60
2018-11-13T19:44:27.078Z,8.60
2018-11-13T19:46:53.045Z,8.60
2018-11-13T19:49:19.875Z,8.60
2018-11-13T19:51:45.880Z,8.60
2018-11-13T19:54:11.956Z,8.60
2018-11-13T19:56:37.861Z,8.60
2018-11-13T19:59:03.890Z,8.60
2018-11-13T20:01:30.621Z,8.50
2018-11-13T20:03:56.614Z,8.40
2018-11-13T20:06:22.584Z,8.40
2018-11-13T20:08:48.589Z,8.40
2018-11-13T20:11:14.551Z,8.40
2018-11-13T20:13:40.556Z,8.40
2018-11-13T20:16:06.617Z,8.40
2018-11-13T20:18:32.537Z,8.40
2018-11-13T20:20:58.510Z,8.40
2018-11-13T20:23:24.535Z,8.20
2018-11-13T20:25:50.503Z,8.40
2018-11-13T20:28:16.506Z,8.40
2018-11-13T20:30:42.514Z,8.50
2018-11-13T20:33:08.501Z,8.60
2018-11-13T20:35:34.503Z,8.50
2018-11-13T20:38:01.929Z,8.40
2018-11-13T20:40:27.931Z,8.40
2018-11-13T20:42:54.642Z,8.40
2018-11-13T20:45:20.674Z,8.40
2018-11-13T20:47:46.665Z,8.40
2018-11-13T20:50:12.652Z,8.30
2018-11-13T20:52:39.358Z,8.40
2018-11-13T20:55:05.376Z,8.40
2018-11-13T20:57:31.375Z,8.40
2018-11-13T20:59:57.397Z,8.30
2018-11-13T21:02:23.412Z,8.40
2018-11-13T21:04:49.398Z,8.50
2018-11-13T21:07:15.392Z,8.50
2018-11-13T21:09:41.478Z,8.40
2018-11-13T21:12:08.173Z,8.30
2018-11-13T21:14:34.158Z,8.30
2018-11-13T21:17:00.302Z,8.40
2018-11-13T21:19:26.109Z,8.40
2018-11-13T21:21:52.079Z,8.40
2018-11-13T21:24:18.827Z,8.40
2018-11-13T21:26:45.662Z,8.30
2018-11-13T21:29:12.402Z,8.40
2018-11-13T21:31:39.119Z,8.30
2018-11-13T21:34:05.082Z,8.30
2018-11-13T21:36:31.101Z,8.30
2018-11-13T21:38:57.798Z,8.30
2018-11-13T21:41:23.814Z,8.30
2018-11-13T21:43:49.770Z,8.20
2018-11-13T21:46:15.934Z,8.10
2018-11-13T21:48:41.999Z,8.10
2018-11-13T21:51:08.157Z,8.20
2018-11-13T21:53:34.134Z,8.20
2018-11-13T21:56:00.119Z,8.10
2018-11-13T21:58:26.129Z,8.10
2018-11-13T22:00:52.297Z,8.10
2018-11-13T22:03:18.481Z,8.20
2018-11-13T22:05:45.207Z,8.20
2018-11-13T22:08:11.931Z,8.20
2018-11-13T22:10:38.666Z,8.10
2018-11-13T22:13:04.741Z,8.10
2018-11-13T22:15:30.684Z,8.10
2018-11-13T22:17:56.777Z,8.10
2018-11-13T22:20:22.757Z,8.00
2018-11-13T22:22:48.762Z,8.10
2018-11-13T22:25:14.744Z,8.00
2018-11-13T22:27:41.639Z,7.90
2018-11-13T22:30:07.521Z,7.90
2018-11-13T22:32:33.493Z,7.90
2018-11-13T22:34:59.484Z,7.90
2018-11-13T22:37:25.458Z,7.90
2018-11-13T22:39:51.503Z,7.90
2018-11-13T22:42:17.437Z,7.90
2018-11-13T22:44:43.435Z,7.80
2018-11-13T22:47:10.154Z,7.90
2018-11-13T22:49:36.127Z,7.80
2018-11-13T22:52:02.103Z,7.90
2018-11-13T22:54:28.074Z,7.90
2018-11-13T22:56:54.072Z,7.80
2018-11-13T22:59:20.784Z,7.80
2018-11-13T23:01:46.791Z,7.80
2018-11-13T23:04:12.806Z,7.80
2018-11-13T23:06:38.830Z,7.90
2018-11-13T23:09:04.819Z,7.90
2018-11-13T23:11:30.795Z,7.90
2018-11-13T23:13:56.786Z,7.80
2018-11-13T23:16:22.771Z,7.80
2018-11-13T23:18:49.506Z,7.90
2018-11-13T23:21:16.236Z,7.90
2018-11-13T23:23:42.229Z,7.80
2018-11-13T23:26:08.214Z,7.80
2018-11-13T23:28:34.241Z,7.90
2018-11-13T23:31:00.215Z,7.90
2018-11-13T23:33:26.963Z,8.00
2018-11-13T23:35:52.947Z,8.00
2018-11-13T23:38:18.913Z,8.00
2018-11-13T23:40:44.928Z,7.90
2018-11-13T23:43:10.930Z,7.90
2018-11-13T23:45:36.953Z,7.80
2018-11-13T23:48:02.919Z,7.80
2018-11-13T23:50:29.660Z,7.80
2018-11-13T23:52:56.376Z,7.80
2018-11-13T23:55:23.143Z,7.80
2018-11-13T23:57:49.846Z,7.80
